sensor_id;sensor_type;location;lat;lon;timestamp;temperature;humidity
14733;DHT22;7457;50.960;6.830;2023-03-11T00:00:36;1.50;93.10
14733;DHT22;7457;50.960;6.830;2023-03-11T00:03:03;1.50;93.00
14733;DHT22;7457;50.960;6.830;2023-03-11T00:05:35;1.50;93.00
14733;DHT22;7457;50.960;6.830;2023-03-11T00:08:01;1.50;92.90
14733;DHT22;7457;50.960;6.830;2023-03-11T00:10:30;1.50;92.60
14733;DHT22;7457;50.960;6.830;2023-03-11T00:12:57;1.50;92.50
14733;DHT22;7457;50.960;6.830;2023-03-11T00:15:24;1.60;92.30
14733;DHT22;7457;50.960;6.830;2023-03-11T00:17:50;1.50;92.40
14733;DHT22;7457;50.960;6.830;2023-03-11T00:20:22;1.60;92.30
14733;DHT22;7457;50.960;6.830;2023-03-11T00:22:49;1.60;92.30
14733;DHT22;7457;50.960;6.830;2023-03-11T00:25:16;1.60;92.30
14733;DHT22;7457;50.960;6.830;2023-03-11T00:27:42;1.60;92.10
14733;DHT22;7457;50.960;6.830;2023-03-11T00:30:10;1.50;92.10
14733;DHT22;7457;50.960;6.830;2023-03-11T00:32:36;1.50;91.80
14733;DHT22;7457;50.960;6.830;2023-03-11T00:35:02;1.50;92.10
14733;DHT22;7457;50.960;6.830;2023-03-11T00:37:28;1.50;92.20
14733;DHT22;7457;50.960;6.830;2023-03-11T00:39:54;1.40;92.50
14733;DHT22;7457;50.960;6.830;2023-03-11T00:42:19;1.30;92.80
14733;DHT22;7457;50.960;6.830;2023-03-11T00:44:45;1.20;93.10
14733;DHT22;7457;50.960;6.830;2023-03-11T00:47:11;1.10;93.40
14733;DHT22;7457;50.960;6.830;2023-03-11T00:49:37;1.00;93.70
14733;DHT22;7457;50.960;6.830;2023-03-11T00:52:04;1.00;93.90
14733;DHT22;7457;50.960;6.830;2023-03-11T00:54:29;1.00;93.90
14733;DHT22;7457;50.960;6.830;2023-03-11T00:56:55;1.00;93.90
14733;DHT22;7457;50.960;6.830;2023-03-11T00:59:21;1.00;93.80
14733;DHT22;7457;50.960;6.830;2023-03-11T01:01:47;1.10;93.80
14733;DHT22;7457;50.960;6.830;2023-03-11T01:04:12;1.10;93.70
14733;DHT22;7457;50.960;6.830;2023-03-11T01:06:38;1.20;93.60
14733;DHT22;7457;50.960;6.830;2023-03-11T01:09:04;1.20;93.60
14733;DHT22;7457;50.960;6.830;2023-03-11T01:11:30;1.20;93.50
14733;DHT22;7457;50.960;6.830;2023-03-11T01:13:56;1.30;93.50
14733;DHT22;7457;50.960;6.830;2023-03-11T01:16:22;1.30;93.30
14733;DHT22;7457;50.960;6.830;2023-03-11T01:18:48;1.30;93.30
14733;DHT22;7457;50.960;6.830;2023-03-11T01:21:13;1.30;93.20
14733;DHT22;7457;50.960;6.830;2023-03-11T01:23:40;1.30;93.20
14733;DHT22;7457;50.960;6.830;2023-03-11T01:26:06;1.30;93.10
14733;DHT22;7457;50.960;6.830;2023-03-11T01:28:32;1.30;93.00
14733;DHT22;7457;50.960;6.830;2023-03-11T01:30:57;1.30;93.10
14733;DHT22;7457;50.960;6.830;2023-03-11T01:33:23;1.30;93.00
14733;DHT22;7457;50.960;6.830;2023-03-11T01:35:49;1.40;93.00
14733;DHT22;7457;50.960;6.830;2023-03-11T01:38:15;1.40;93.00
14733;DHT22;7457;50.960;6.830;2023-03-11T01:40:47;1.40;92.90
14733;DHT22;7457;50.960;6.830;2023-03-11T01:49:02;1.40;92.60
14733;DHT22;7457;50.960;6.830;2023-03-11T01:51:37;1.30;92.40
14733;DHT22;7457;50.960;6.830;2023-03-11T01:54:16;1.30;92.40
14733;DHT22;7457;50.960;6.830;2023-03-11T01:56:43;1.30;92.30
14733;DHT22;7457;50.960;6.830;2023-03-11T01:59:13;1.20;92.30
14733;DHT22;7457;50.960;6.830;2023-03-11T02:04:45;1.10;92.60
14733;DHT22;7457;50.960;6.830;2023-03-11T02:07:13;1.00;92.70
14733;DHT22;7457;50.960;6.830;2023-03-11T02:09:39;0.90;92.80
14733;DHT22;7457;50.960;6.830;2023-03-11T02:12:05;0.90;92.90
14733;DHT22;7457;50.960;6.830;2023-03-11T02:14:33;0.90;93.10
14733;DHT22;7457;50.960;6.830;2023-03-11T02:16:59;0.90;93.10
14733;DHT22;7457;50.960;6.830;2023-03-11T02:19:38;0.80;93.00
14733;DHT22;7457;50.960;6.830;2023-03-11T02:22:07;0.80;93.00
14733;DHT22;7457;50.960;6.830;2023-03-11T02:27:20;0.60;93.10
14733;DHT22;7457;50.960;6.830;2023-03-11T02:29:47;0.60;93.00
14733;DHT22;7457;50.960;6.830;2023-03-11T02:32:16;0.60;93.10
14733;DHT22;7457;50.960;6.830;2023-03-11T02:34:42;0.50;93.10
14733;DHT22;7457;50.960;6.830;2023-03-11T02:37:10;0.50;93.20
14733;DHT22;7457;50.960;6.830;2023-03-11T02:39:38;0.50;93.20
14733;DHT22;7457;50.960;6.830;2023-03-11T02:42:09;0.50;93.30
14733;DHT22;7457;50.960;6.830;2023-03-11T02:44:37;0.50;93.40
14733;DHT22;7457;50.960;6.830;2023-03-11T02:47:04;0.50;93.30
14733;DHT22;7457;50.960;6.830;2023-03-11T02:49:30;0.50;93.40
14733;DHT22;7457;50.960;6.830;2023-03-11T02:51:55;0.50;93.30
14733;DHT22;7457;50.960;6.830;2023-03-11T02:54:21;0.50;93.30
14733;DHT22;7457;50.960;6.830;2023-03-11T02:56:47;0.40;93.30
14733;DHT22;7457;50.960;6.830;2023-03-11T02:59:12;0.40;93.20
14733;DHT22;7457;50.960;6.830;2023-03-11T03:01:38;0.40;93.20
14733;DHT22;7457;50.960;6.830;2023-03-11T03:04:04;0.40;93.20
14733;DHT22;7457;50.960;6.830;2023-03-11T03:06:30;0.30;93.20
14733;DHT22;7457;50.960;6.830;2023-03-11T03:08:55;0.30;93.20
14733;DHT22;7457;50.960;6.830;2023-03-11T03:11:21;0.30;93.10
14733;DHT22;7457;50.960;6.830;2023-03-11T03:13:47;0.30;93.20
14733;DHT22;7457;50.960;6.830;2023-03-11T03:16:12;0.20;93.10
14733;DHT22;7457;50.960;6.830;2023-03-11T03:18:38;0.20;93.10
14733;DHT22;7457;50.960;6.830;2023-03-11T03:21:04;0.20;93.20
14733;DHT22;7457;50.960;6.830;2023-03-11T03:23:30;0.10;93.20
14733;DHT22;7457;50.960;6.830;2023-03-11T03:26:00;0.10;93.20
14733;DHT22;7457;50.960;6.830;2023-03-11T03:28:26;0.10;93.20
14733;DHT22;7457;50.960;6.830;2023-03-11T03:30:52;0.00;93.20
14733;DHT22;7457;50.960;6.830;2023-03-11T03:33:18;0.00;93.20
14733;DHT22;7457;50.960;6.830;2023-03-11T03:35:44;0.00;93.30
14733;DHT22;7457;50.960;6.830;2023-03-11T03:38:10;0.00;93.40
14733;DHT22;7457;50.960;6.830;2023-03-11T03:40:36;0.00;93.50
14733;DHT22;7457;50.960;6.830;2023-03-11T03:43:02;0.00;93.40
14733;DHT22;7457;50.960;6.830;2023-03-11T03:45:28;-0.10;93.50
14733;DHT22;7457;50.960;6.830;2023-03-11T03:47:53;-0.10;93.40
14733;DHT22;7457;50.960;6.830;2023-03-11T03:50:19;-0.20;93.40
14733;DHT22;7457;50.960;6.830;2023-03-11T03:52:45;-0.20;93.40
14733;DHT22;7457;50.960;6.830;2023-03-11T03:55:10;-0.20;93.40
14733;DHT22;7457;50.960;6.830;2023-03-11T03:57:36;-0.30;93.40
14733;DHT22;7457;50.960;6.830;2023-03-11T04:00:03;-0.30;93.40
14733;DHT22;7457;50.960;6.830;2023-03-11T04:02:30;-0.40;93.50
14733;DHT22;7457;50.960;6.830;2023-03-11T04:04:56;-0.40;93.50
14733;DHT22;7457;50.960;6.830;2023-03-11T04:07:21;-0.40;93.60
14733;DHT22;7457;50.960;6.830;2023-03-11T04:09:47;-0.40;93.70
14733;DHT22;7457;50.960;6.830;2023-03-11T04:12:13;-0.40;93.80
14733;DHT22;7457;50.960;6.830;2023-03-11T04:14:40;-0.40;93.80
14733;DHT22;7457;50.960;6.830;2023-03-11T04:17:07;-0.40;93.90
14733;DHT22;7457;50.960;6.830;2023-03-11T04:19:32;-0.40;94.00
14733;DHT22;7457;50.960;6.830;2023-03-11T04:21:58;-0.30;94.00
14733;DHT22;7457;50.960;6.830;2023-03-11T04:24:24;-0.30;93.90
14733;DHT22;7457;50.960;6.830;2023-03-11T04:26:49;-0.20;93.80
14733;DHT22;7457;50.960;6.830;2023-03-11T04:29:15;-0.20;93.60
14733;DHT22;7457;50.960;6.830;2023-03-11T04:31:41;-0.20;93.60
14733;DHT22;7457;50.960;6.830;2023-03-11T04:34:06;-0.20;93.60
14733;DHT22;7457;50.960;6.830;2023-03-11T04:36:32;-0.20;93.50
14733;DHT22;7457;50.960;6.830;2023-03-11T04:38:58;-0.20;93.50
14733;DHT22;7457;50.960;6.830;2023-03-11T04:41:24;-0.20;93.40
14733;DHT22;7457;50.960;6.830;2023-03-11T04:43:49;-0.20;93.30
14733;DHT22;7457;50.960;6.830;2023-03-11T04:46:15;-0.20;93.30
14733;DHT22;7457;50.960;6.830;2023-03-11T04:48:40;-0.30;93.30
14733;DHT22;7457;50.960;6.830;2023-03-11T04:51:07;-0.30;93.20
14733;DHT22;7457;50.960;6.830;2023-03-11T04:53:32;-0.30;93.20
14733;DHT22;7457;50.960;6.830;2023-03-11T04:55:58;-0.40;93.20
14733;DHT22;7457;50.960;6.830;2023-03-11T04:58:24;-0.40;93.20
14733;DHT22;7457;50.960;6.830;2023-03-11T05:00:51;-0.40;93.30
14733;DHT22;7457;50.960;6.830;2023-03-11T05:03:17;-0.40;93.40
14733;DHT22;7457;50.960;6.830;2023-03-11T05:05:43;-0.40;93.40
14733;DHT22;7457;50.960;6.830;2023-03-11T05:08:09;-0.40;93.50
14733;DHT22;7457;50.960;6.830;2023-03-11T05:10:34;-0.40;93.50
14733;DHT22;7457;50.960;6.830;2023-03-11T05:13:01;-0.30;93.50
14733;DHT22;7457;50.960;6.830;2023-03-11T05:15:27;-0.30;93.50
14733;DHT22;7457;50.960;6.830;2023-03-11T05:17:55;-0.30;93.50
14733;DHT22;7457;50.960;6.830;2023-03-11T05:20:20;-0.30;93.50
14733;DHT22;7457;50.960;6.830;2023-03-11T05:22:46;-0.30;93.50
14733;DHT22;7457;50.960;6.830;2023-03-11T05:25:12;-0.20;93.50
14733;DHT22;7457;50.960;6.830;2023-03-11T05:27:37;-0.20;93.50
14733;DHT22;7457;50.960;6.830;2023-03-11T05:30:03;-0.20;93.50
14733;DHT22;7457;50.960;6.830;2023-03-11T05:32:29;-0.20;93.60
14733;DHT22;7457;50.960;6.830;2023-03-11T05:34:55;-0.10;93.50
14733;DHT22;7457;50.960;6.830;2023-03-11T05:37:20;-0.10;93.50
14733;DHT22;7457;50.960;6.830;2023-03-11T05:39:46;-0.10;93.60
14733;DHT22;7457;50.960;6.830;2023-03-11T05:42:12;0.00;93.50
14733;DHT22;7457;50.960;6.830;2023-03-11T05:44:37;0.00;93.70
14733;DHT22;7457;50.960;6.830;2023-03-11T05:47:03;0.00;93.90
14733;DHT22;7457;50.960;6.830;2023-03-11T05:49:29;0.00;94.00
14733;DHT22;7457;50.960;6.830;2023-03-11T05:51:54;0.00;94.00
14733;DHT22;7457;50.960;6.830;2023-03-11T05:54:20;0.00;94.00
14733;DHT22;7457;50.960;6.830;2023-03-11T05:56:46;0.00;93.90
14733;DHT22;7457;50.960;6.830;2023-03-11T05:59:13;0.00;93.90
14733;DHT22;7457;50.960;6.830;2023-03-11T06:01:39;0.00;94.00
14733;DHT22;7457;50.960;6.830;2023-03-11T06:04:05;0.10;94.20
14733;DHT22;7457;50.960;6.830;2023-03-11T06:06:31;0.10;94.30
14733;DHT22;7457;50.960;6.830;2023-03-11T06:08:57;0.10;94.40
14733;DHT22;7457;50.960;6.830;2023-03-11T06:11:22;0.10;94.50
14733;DHT22;7457;50.960;6.830;2023-03-11T06:13:55;0.10;94.50
14733;DHT22;7457;50.960;6.830;2023-03-11T06:16:22;0.20;94.60
14733;DHT22;7457;50.960;6.830;2023-03-11T06:18:48;0.20;94.80
14733;DHT22;7457;50.960;6.830;2023-03-11T06:21:19;0.20;94.90
14733;DHT22;7457;50.960;6.830;2023-03-11T06:23:45;0.30;95.10
14733;DHT22;7457;50.960;6.830;2023-03-11T06:26:16;0.30;95.10
14733;DHT22;7457;50.960;6.830;2023-03-11T06:28:43;0.30;95.40
14733;DHT22;7457;50.960;6.830;2023-03-11T06:31:14;0.40;95.30
14733;DHT22;7457;50.960;6.830;2023-03-11T06:33:40;0.40;95.10
14733;DHT22;7457;50.960;6.830;2023-03-11T06:36:07;0.50;95.30
14733;DHT22;7457;50.960;6.830;2023-03-11T06:38:33;0.60;95.30
14733;DHT22;7457;50.960;6.830;2023-03-11T06:41:00;0.60;95.20
14733;DHT22;7457;50.960;6.830;2023-03-11T06:43:26;0.70;95.20
14733;DHT22;7457;50.960;6.830;2023-03-11T06:45:52;0.80;95.20
14733;DHT22;7457;50.960;6.830;2023-03-11T06:48:17;0.90;94.80
14733;DHT22;7457;50.960;6.830;2023-03-11T06:50:43;1.00;94.20
14733;DHT22;7457;50.960;6.830;2023-03-11T06:53:09;1.00;93.80
14733;DHT22;7457;50.960;6.830;2023-03-11T06:55:35;1.00;93.80
14733;DHT22;7457;50.960;6.830;2023-03-11T06:58:01;1.00;93.90
14733;DHT22;7457;50.960;6.830;2023-03-11T07:00:27;1.10;93.80
14733;DHT22;7457;50.960;6.830;2023-03-11T07:02:55;1.10;94.00
14733;DHT22;7457;50.960;6.830;2023-03-11T07:05:21;1.20;94.00
14733;DHT22;7457;50.960;6.830;2023-03-11T07:07:46;1.20;94.20
14733;DHT22;7457;50.960;6.830;2023-03-11T07:10:13;1.30;93.90
14733;DHT22;7457;50.960;6.830;2023-03-11T07:12:38;1.30;94.10
14733;DHT22;7457;50.960;6.830;2023-03-11T07:15:04;1.40;95.00
14733;DHT22;7457;50.960;6.830;2023-03-11T07:17:31;1.60;93.90
14733;DHT22;7457;50.960;6.830;2023-03-11T07:19:56;1.70;93.50
14733;DHT22;7457;50.960;6.830;2023-03-11T07:22:22;1.80;93.30
14733;DHT22;7457;50.960;6.830;2023-03-11T07:24:48;1.90;93.00
14733;DHT22;7457;50.960;6.830;2023-03-11T07:27:14;2.00;93.40
14733;DHT22;7457;50.960;6.830;2023-03-11T07:29:40;2.10;93.60
14733;DHT22;7457;50.960;6.830;2023-03-11T07:32:06;2.50;95.00
14733;DHT22;7457;50.960;6.830;2023-03-11T07:34:32;3.10;94.70
14733;DHT22;7457;50.960;6.830;2023-03-11T07:36:58;3.50;94.00
14733;DHT22;7457;50.960;6.830;2023-03-11T07:39:24;4.10;93.60
14733;DHT22;7457;50.960;6.830;2023-03-11T07:41:49;4.60;92.20
14733;DHT22;7457;50.960;6.830;2023-03-11T07:44:16;5.00;91.30
14733;DHT22;7457;50.960;6.830;2023-03-11T07:46:42;5.30;89.70
14733;DHT22;7457;50.960;6.830;2023-03-11T07:49:08;5.40;88.00
14733;DHT22;7457;50.960;6.830;2023-03-11T07:51:35;5.40;86.10
14733;DHT22;7457;50.960;6.830;2023-03-11T07:54:01;5.50;88.30
14733;DHT22;7457;50.960;6.830;2023-03-11T07:56:29;5.90;88.00
14733;DHT22;7457;50.960;6.830;2023-03-11T07:58:57;6.40;88.20
14733;DHT22;7457;50.960;6.830;2023-03-11T08:01:25;7.00;87.30
14733;DHT22;7457;50.960;6.830;2023-03-11T08:03:52;7.50;86.10
14733;DHT22;7457;50.960;6.830;2023-03-11T08:06:28;7.90;84.20
14733;DHT22;7457;50.960;6.830;2023-03-11T08:08:56;8.10;82.10
14733;DHT22;7457;50.960;6.830;2023-03-11T08:11:22;8.20;82.10
14733;DHT22;7457;50.960;6.830;2023-03-11T08:13:48;8.30;82.00
14733;DHT22;7457;50.960;6.830;2023-03-11T08:16:17;8.40;81.50
14733;DHT22;7457;50.960;6.830;2023-03-11T08:18:45;8.60;81.20
14733;DHT22;7457;50.960;6.830;2023-03-11T08:21:13;8.80;80.80
14733;DHT22;7457;50.960;6.830;2023-03-11T08:23:39;9.00;78.90
14733;DHT22;7457;50.960;6.830;2023-03-11T08:26:07;9.20;79.30
14733;DHT22;7457;50.960;6.830;2023-03-11T08:28:33;9.30;78.00
14733;DHT22;7457;50.960;6.830;2023-03-11T08:30:59;9.40;76.60
14733;DHT22;7457;50.960;6.830;2023-03-11T08:33:26;9.30;76.20
14733;DHT22;7457;50.960;6.830;2023-03-11T08:35:52;9.20;75.10
14733;DHT22;7457;50.960;6.830;2023-03-11T08:38:18;9.00;74.50
14733;DHT22;7457;50.960;6.830;2023-03-11T08:40:43;8.70;74.80
14733;DHT22;7457;50.960;6.830;2023-03-11T08:43:13;8.50;75.00
14733;DHT22;7457;50.960;6.830;2023-03-11T08:45:40;8.30;75.10
14733;DHT22;7457;50.960;6.830;2023-03-11T08:48:08;8.10;74.50
14733;DHT22;7457;50.960;6.830;2023-03-11T08:50:34;7.80;75.20
14733;DHT22;7457;50.960;6.830;2023-03-11T08:53:00;7.60;75.00
14733;DHT22;7457;50.960;6.830;2023-03-11T08:55:28;7.40;75.20
14733;DHT22;7457;50.960;6.830;2023-03-11T08:57:54;7.20;75.00
14733;DHT22;7457;50.960;6.830;2023-03-11T09:00:21;7.20;75.30
14733;DHT22;7457;50.960;6.830;2023-03-11T09:02:47;7.10;75.00
14733;DHT22;7457;50.960;6.830;2023-03-11T09:05:13;7.00;74.50
14733;DHT22;7457;50.960;6.830;2023-03-11T09:07:39;6.90;74.30
14733;DHT22;7457;50.960;6.830;2023-03-11T09:10:06;6.90;74.50
14733;DHT22;7457;50.960;6.830;2023-03-11T09:12:32;6.90;74.70
14733;DHT22;7457;50.960;6.830;2023-03-11T09:14:58;6.90;73.90
14733;DHT22;7457;50.960;6.830;2023-03-11T09:17:24;6.80;73.80
14733;DHT22;7457;50.960;6.830;2023-03-11T09:19:49;6.90;73.50
14733;DHT22;7457;50.960;6.830;2023-03-11T09:22:15;6.80;71.70
14733;DHT22;7457;50.960;6.830;2023-03-11T09:24:41;6.60;73.70
14733;DHT22;7457;50.960;6.830;2023-03-11T09:27:06;6.60;73.80
14733;DHT22;7457;50.960;6.830;2023-03-11T09:29:32;6.70;74.20
14733;DHT22;7457;50.960;6.830;2023-03-11T09:31:58;6.80;73.90
14733;DHT22;7457;50.960;6.830;2023-03-11T09:34:23;7.00;74.30
14733;DHT22;7457;50.960;6.830;2023-03-11T09:36:49;7.00;74.20
14733;DHT22;7457;50.960;6.830;2023-03-11T09:39:15;7.20;74.30
14733;DHT22;7457;50.960;6.830;2023-03-11T09:44:20;7.10;71.90
14733;DHT22;7457;50.960;6.830;2023-03-11T09:52:12;6.80;73.80
14733;DHT22;7457;50.960;6.830;2023-03-11T09:54:57;6.90;73.30
14733;DHT22;7457;50.960;6.830;2023-03-11T09:57:28;7.20;73.70
14733;DHT22;7457;50.960;6.830;2023-03-11T09:59:56;7.80;72.30
14733;DHT22;7457;50.960;6.830;2023-03-11T10:02:23;7.90;69.40
14733;DHT22;7457;50.960;6.830;2023-03-11T10:05:24;7.70;69.20
14733;DHT22;7457;50.960;6.830;2023-03-11T10:08:10;7.50;68.50
14733;DHT22;7457;50.960;6.830;2023-03-11T10:10:44;7.20;67.70
14733;DHT22;7457;50.960;6.830;2023-03-11T10:13:25;7.10;68.60
14733;DHT22;7457;50.960;6.830;2023-03-11T10:23:59;7.10;69.40
14733;DHT22;7457;50.960;6.830;2023-03-11T10:26:31;7.70;71.00
14733;DHT22;7457;50.960;6.830;2023-03-11T10:37:04;9.80;67.60
14733;DHT22;7457;50.960;6.830;2023-03-11T10:39:33;10.00;66.70
14733;DHT22;7457;50.960;6.830;2023-03-11T10:42:04;10.10;66.20
14733;DHT22;7457;50.960;6.830;2023-03-11T10:44:34;10.20;64.90
14733;DHT22;7457;50.960;6.830;2023-03-11T10:47:01;10.10;64.00
14733;DHT22;7457;50.960;6.830;2023-03-11T10:49:27;9.80;63.60
14733;DHT22;7457;50.960;6.830;2023-03-11T10:51:54;9.50;62.90
14733;DHT22;7457;50.960;6.830;2023-03-11T10:54:35;9.20;63.10
14733;DHT22;7457;50.960;6.830;2023-03-11T10:57:05;8.90;63.30
14733;DHT22;7457;50.960;6.830;2023-03-11T10:59:34;8.80;63.40
14733;DHT22;7457;50.960;6.830;2023-03-11T11:02:28;8.70;63.30
14733;DHT22;7457;50.960;6.830;2023-03-11T11:08:07;8.40;62.80
14733;DHT22;7457;50.960;6.830;2023-03-11T11:10:34;8.30;62.40
14733;DHT22;7457;50.960;6.830;2023-03-11T11:15:34;8.00;63.20
14733;DHT22;7457;50.960;6.830;2023-03-11T11:18:05;7.90;63.60
14733;DHT22;7457;50.960;6.830;2023-03-11T11:20:32;7.90;63.80
14733;DHT22;7457;50.960;6.830;2023-03-11T11:23:02;7.90;63.00
14733;DHT22;7457;50.960;6.830;2023-03-11T11:25:39;7.90;63.40
14733;DHT22;7457;50.960;6.830;2023-03-11T11:28:17;7.90;63.20
14733;DHT22;7457;50.960;6.830;2023-03-11T11:33:35;7.80;62.00
14733;DHT22;7457;50.960;6.830;2023-03-11T11:36:04;7.60;60.70
14733;DHT22;7457;50.960;6.830;2023-03-11T11:38:31;7.40;61.20
14733;DHT22;7457;50.960;6.830;2023-03-11T11:41:00;7.30;61.10
14733;DHT22;7457;50.960;6.830;2023-03-11T11:46:03;7.10;61.20
14733;DHT22;7457;50.960;6.830;2023-03-11T11:51:20;7.00;60.90
14733;DHT22;7457;50.960;6.830;2023-03-11T11:54:16;7.10;62.00
14733;DHT22;7457;50.960;6.830;2023-03-11T11:56:44;7.40;61.50
14733;DHT22;7457;50.960;6.830;2023-03-11T11:59:18;7.90;62.40
14733;DHT22;7457;50.960;6.830;2023-03-11T12:10:17;9.10;62.40
14733;DHT22;7457;50.960;6.830;2023-03-11T12:15:25;10.50;60.20
14733;DHT22;7457;50.960;6.830;2023-03-11T12:17:56;10.60;58.70
14733;DHT22;7457;50.960;6.830;2023-03-11T12:30:43;9.20;57.00
14733;DHT22;7457;50.960;6.830;2023-03-11T12:33:17;8.80;57.10
14733;DHT22;7457;50.960;6.830;2023-03-11T12:36:03;8.30;57.70
14733;DHT22;7457;50.960;6.830;2023-03-11T12:46:03;7.60;59.70
14733;DHT22;7457;50.960;6.830;2023-03-11T12:48:41;7.60;60.00
14733;DHT22;7457;50.960;6.830;2023-03-11T12:54:25;7.60;59.40
14733;DHT22;7457;50.960;6.830;2023-03-11T13:03:26;7.50;59.50
14733;DHT22;7457;50.960;6.830;2023-03-11T13:08:46;7.70;60.00
14733;DHT22;7457;50.960;6.830;2023-03-11T13:16:39;7.90;60.20
14733;DHT22;7457;50.960;6.830;2023-03-11T13:20:38;8.00;60.40
14733;DHT22;7457;50.960;6.830;2023-03-11T13:25:28;8.40;59.30
14733;DHT22;7457;50.960;6.830;2023-03-11T13:28:10;8.40;58.70
14733;DHT22;7457;50.960;6.830;2023-03-11T13:30:41;8.20;58.60
14733;DHT22;7457;50.960;6.830;2023-03-11T13:33:26;8.10;59.20
14733;DHT22;7457;50.960;6.830;2023-03-11T13:36:12;8.00;58.90
14733;DHT22;7457;50.960;6.830;2023-03-11T13:41:29;7.60;59.30
14733;DHT22;7457;50.960;6.830;2023-03-11T13:44:21;7.60;59.80
14733;DHT22;7457;50.960;6.830;2023-03-11T13:47:12;7.60;60.30
14733;DHT22;7457;50.960;6.830;2023-03-11T13:50:05;7.50;59.70
14733;DHT22;7457;50.960;6.830;2023-03-11T13:52:37;7.40;60.60
14733;DHT22;7457;50.960;6.830;2023-03-11T13:55:08;7.40;60.30
14733;DHT22;7457;50.960;6.830;2023-03-11T13:57:52;7.50;60.50
14733;DHT22;7457;50.960;6.830;2023-03-11T14:00:20;7.50;60.40
14733;DHT22;7457;50.960;6.830;2023-03-11T14:02:52;7.50;60.20
14733;DHT22;7457;50.960;6.830;2023-03-11T14:07:50;7.30;59.80
14733;DHT22;7457;50.960;6.830;2023-03-11T14:10:21;7.20;59.80
14733;DHT22;7457;50.960;6.830;2023-03-11T14:12:47;7.10;59.90
14733;DHT22;7457;50.960;6.830;2023-03-11T14:15:20;7.00;60.30
14733;DHT22;7457;50.960;6.830;2023-03-11T14:17:47;7.00;60.40
14733;DHT22;7457;50.960;6.830;2023-03-11T14:20:15;7.00;60.70
14733;DHT22;7457;50.960;6.830;2023-03-11T14:22:49;7.00;60.70
14733;DHT22;7457;50.960;6.830;2023-03-11T14:25:21;7.00;60.70
14733;DHT22;7457;50.960;6.830;2023-03-11T14:27:54;6.90;60.30
14733;DHT22;7457;50.960;6.830;2023-03-11T14:30:24;6.90;60.60
14733;DHT22;7457;50.960;6.830;2023-03-11T14:33:05;6.90;60.50
14733;DHT22;7457;50.960;6.830;2023-03-11T14:35:32;6.80;60.60
14733;DHT22;7457;50.960;6.830;2023-03-11T14:37:59;6.80;60.70
14733;DHT22;7457;50.960;6.830;2023-03-11T14:40:36;6.80;60.50
14733;DHT22;7457;50.960;6.830;2023-03-11T14:43:06;6.80;60.20
14733;DHT22;7457;50.960;6.830;2023-03-11T14:45:34;6.70;60.30
14733;DHT22;7457;50.960;6.830;2023-03-11T14:48:19;6.70;60.40
14733;DHT22;7457;50.960;6.830;2023-03-11T14:50:47;6.60;60.00
14733;DHT22;7457;50.960;6.830;2023-03-11T14:56:06;6.50;60.50
14733;DHT22;7457;50.960;6.830;2023-03-11T14:58:39;6.50;60.40
14733;DHT22;7457;50.960;6.830;2023-03-11T15:01:13;6.40;60.70
14733;DHT22;7457;50.960;6.830;2023-03-11T15:04:01;6.40;60.90
14733;DHT22;7457;50.960;6.830;2023-03-11T15:06:31;6.40;61.00
14733;DHT22;7457;50.960;6.830;2023-03-11T15:11:28;6.30;60.80
14733;DHT22;7457;50.960;6.830;2023-03-11T15:14:29;6.30;60.90
14733;DHT22;7457;50.960;6.830;2023-03-11T15:17:09;6.20;60.40
14733;DHT22;7457;50.960;6.830;2023-03-11T15:19:38;6.20;60.50
14733;DHT22;7457;50.960;6.830;2023-03-11T15:24:53;6.10;60.50
14733;DHT22;7457;50.960;6.830;2023-03-11T15:27:34;6.00;59.40
14733;DHT22;7457;50.960;6.830;2023-03-11T15:30:02;5.90;59.00
14733;DHT22;7457;50.960;6.830;2023-03-11T15:35:10;5.80;59.50
14733;DHT22;7457;50.960;6.830;2023-03-11T15:37:38;5.70;59.00
14733;DHT22;7457;50.960;6.830;2023-03-11T15:40:25;5.60;59.10
14733;DHT22;7457;50.960;6.830;2023-03-11T15:43:26;5.50;59.20
14733;DHT22;7457;50.960;6.830;2023-03-11T15:45:53;5.50;59.50
14733;DHT22;7457;50.960;6.830;2023-03-11T15:48:19;5.40;59.90
14733;DHT22;7457;50.960;6.830;2023-03-11T15:53:12;5.30;60.30
14733;DHT22;7457;50.960;6.830;2023-03-11T15:55:38;5.30;60.60
14733;DHT22;7457;50.960;6.830;2023-03-11T15:58:06;5.30;60.50
14733;DHT22;7457;50.960;6.830;2023-03-11T16:00:32;5.20;60.40
14733;DHT22;7457;50.960;6.830;2023-03-11T16:02:58;5.20;60.30
14733;DHT22;7457;50.960;6.830;2023-03-11T16:05:25;5.20;60.30
14733;DHT22;7457;50.960;6.830;2023-03-11T16:07:50;5.20;60.30
14733;DHT22;7457;50.960;6.830;2023-03-11T16:10:19;5.10;60.10
14733;DHT22;7457;50.960;6.830;2023-03-11T16:12:45;5.10;60.20
14733;DHT22;7457;50.960;6.830;2023-03-11T16:15:23;5.10;60.10
14733;DHT22;7457;50.960;6.830;2023-03-11T16:17:55;5.10;60.00
14733;DHT22;7457;50.960;6.830;2023-03-11T16:20:22;5.10;60.10
14733;DHT22;7457;50.960;6.830;2023-03-11T16:22:50;5.10;59.90
14733;DHT22;7457;50.960;6.830;2023-03-11T16:25:26;5.10;60.20
14733;DHT22;7457;50.960;6.830;2023-03-11T16:27:54;5.10;60.30
14733;DHT22;7457;50.960;6.830;2023-03-11T16:30:21;5.00;60.10
14733;DHT22;7457;50.960;6.830;2023-03-11T16:32:46;5.00;60.40
14733;DHT22;7457;50.960;6.830;2023-03-11T16:35:12;5.00;60.50
14733;DHT22;7457;50.960;6.830;2023-03-11T16:37:38;5.00;60.30
14733;DHT22;7457;50.960;6.830;2023-03-11T16:40:09;5.00;60.00
14733;DHT22;7457;50.960;6.830;2023-03-11T16:42:35;4.90;60.30
14733;DHT22;7457;50.960;6.830;2023-03-11T16:45:01;4.90;60.20
14733;DHT22;7457;50.960;6.830;2023-03-11T16:47:26;4.90;60.30
14733;DHT22;7457;50.960;6.830;2023-03-11T16:49:52;4.80;60.30
14733;DHT22;7457;50.960;6.830;2023-03-11T16:52:21;4.80;60.40
14733;DHT22;7457;50.960;6.830;2023-03-11T16:54:48;4.80;60.30
14733;DHT22;7457;50.960;6.830;2023-03-11T16:57:14;4.70;60.30
14733;DHT22;7457;50.960;6.830;2023-03-11T16:59:40;4.70;60.40
14733;DHT22;7457;50.960;6.830;2023-03-11T17:02:09;4.70;60.40
14733;DHT22;7457;50.960;6.830;2023-03-11T17:04:35;4.60;60.40
14733;DHT22;7457;50.960;6.830;2023-03-11T17:07:03;4.60;60.60
14733;DHT22;7457;50.960;6.830;2023-03-11T17:09:29;4.50;60.60
14733;DHT22;7457;50.960;6.830;2023-03-11T17:11:54;4.50;60.50
14733;DHT22;7457;50.960;6.830;2023-03-11T17:14:20;4.50;60.50
14733;DHT22;7457;50.960;6.830;2023-03-11T17:16:46;4.40;60.50
14733;DHT22;7457;50.960;6.830;2023-03-11T17:19:11;4.30;60.50
14733;DHT22;7457;50.960;6.830;2023-03-11T17:21:38;4.30;60.60
14733;DHT22;7457;50.960;6.830;2023-03-11T17:24:04;4.20;60.60
14733;DHT22;7457;50.960;6.830;2023-03-11T17:26:30;4.10;60.70
14733;DHT22;7457;50.960;6.830;2023-03-11T17:28:56;4.00;60.70
14733;DHT22;7457;50.960;6.830;2023-03-11T17:31:21;3.90;60.70
14733;DHT22;7457;50.960;6.830;2023-03-11T17:33:47;3.90;60.70
14733;DHT22;7457;50.960;6.830;2023-03-11T17:36:15;3.80;60.80
14733;DHT22;7457;50.960;6.830;2023-03-11T17:38:42;3.80;61.00
14733;DHT22;7457;50.960;6.830;2023-03-11T17:41:09;3.70;61.20
14733;DHT22;7457;50.960;6.830;2023-03-11T17:43:35;3.70;61.20
14733;DHT22;7457;50.960;6.830;2023-03-11T17:46:04;3.70;61.30
14733;DHT22;7457;50.960;6.830;2023-03-11T17:48:30;3.60;61.30
14733;DHT22;7457;50.960;6.830;2023-03-11T17:50:56;3.60;61.40
14733;DHT22;7457;50.960;6.830;2023-03-11T17:53:21;3.60;61.50
14733;DHT22;7457;50.960;6.830;2023-03-11T17:55:47;3.60;61.70
14733;DHT22;7457;50.960;6.830;2023-03-11T17:58:12;3.50;61.80
14733;DHT22;7457;50.960;6.830;2023-03-11T18:00:38;3.50;61.90
14733;DHT22;7457;50.960;6.830;2023-03-11T18:03:04;3.40;62.10
14733;DHT22;7457;50.960;6.830;2023-03-11T18:05:29;3.30;62.30